sensor_id;sensor_type;location;lat;lon;timestamp;P1;durP1;ratioP1;P2;durP2;ratioP2
65238;SDS011;51827;51.186;6.926;2023-06-22T00:00:35;2.77;;;2.10;;
65238;SDS011;51827;51.186;6.926;2023-06-22T00:01:36;4.27;;;2.40;;
65238;SDS011;51827;51.186;6.926;2023-06-22T00:02:36;3.90;;;2.50;;
65238;SDS011;51827;51.186;6.926;2023-06-22T00:03:36;3.30;;;2.10;;
65238;SDS011;51827;51.186;6.926;2023-06-22T00:04:36;3.17;;;2.30;;
65238;SDS011;51827;51.186;6.926;2023-06-22T00:05:37;3.37;;;2.20;;
65238;SDS011;51827;51.186;6.926;2023-06-22T00:06:37;2.93;;;2.13;;
65238;SDS011;51827;51.186;6.926;2023-06-22T00:07:37;6.30;;;2.30;;
65238;SDS011;51827;51.186;6.926;2023-06-22T00:08:37;3.00;;;2.17;;
65238;SDS011;51827;51.186;6.926;2023-06-22T00:09:38;3.63;;;2.30;;
65238;SDS011;51827;51.186;6.926;2023-06-22T00:10:38;2.70;;;1.93;;
65238;SDS011;51827;51.186;6.926;2023-06-22T00:11:39;2.80;;;2.03;;
65238;SDS011;51827;51.186;6.926;2023-06-22T00:12:39;3.17;;;2.23;;
65238;SDS011;51827;51.186;6.926;2023-06-22T00:13:39;3.77;;;2.40;;
65238;SDS011;51827;51.186;6.926;2023-06-22T00:14:39;3.70;;;2.10;;
65238;SDS011;51827;51.186;6.926;2023-06-22T00:15:40;3.07;;;2.30;;
65238;SDS011;51827;51.186;6.926;2023-06-22T00:17:41;2.97;;;2.27;;
65238;SDS011;51827;51.186;6.926;2023-06-22T00:18:41;3.83;;;2.20;;
65238;SDS011;51827;51.186;6.926;2023-06-22T00:19:42;3.50;;;2.37;;
65238;SDS011;51827;51.186;6.926;2023-06-22T00:20:42;3.30;;;2.20;;
65238;SDS011;51827;51.186;6.926;2023-06-22T00:21:42;3.70;;;2.60;;
65238;SDS011;51827;51.186;6.926;2023-06-22T00:22:42;3.33;;;2.13;;
65238;SDS011;51827;51.186;6.926;2023-06-22T00:23:43;3.10;;;2.20;;
65238;SDS011;51827;51.186;6.926;2023-06-22T00:24:43;3.73;;;2.30;;
65238;SDS011;51827;51.186;6.926;2023-06-22T00:25:43;3.40;;;2.17;;
65238;SDS011;51827;51.186;6.926;2023-06-22T00:26:43;2.80;;;1.93;;
65238;SDS011;51827;51.186;6.926;2023-06-22T00:27:44;3.13;;;2.17;;
65238;SDS011;51827;51.186;6.926;2023-06-22T00:28:44;2.90;;;2.13;;
65238;SDS011;51827;51.186;6.926;2023-06-22T00:29:44;3.00;;;2.20;;
65238;SDS011;51827;51.186;6.926;2023-06-22T00:30:44;2.80;;;2.10;;
65238;SDS011;51827;51.186;6.926;2023-06-22T00:31:48;2.53;;;2.10;;
65238;SDS011;51827;51.186;6.926;2023-06-22T00:32:48;3.27;;;2.10;;
65238;SDS011;51827;51.186;6.926;2023-06-22T00:33:49;3.00;;;2.00;;
65238;SDS011;51827;51.186;6.926;2023-06-22T00:34:49;2.93;;;2.10;;
65238;SDS011;51827;51.186;6.926;2023-06-22T00:35:49;2.70;;;2.00;;
65238;SDS011;51827;51.186;6.926;2023-06-22T00:36:49;2.60;;;2.00;;
65238;SDS011;51827;51.186;6.926;2023-06-22T00:37:50;2.70;;;1.83;;
65238;SDS011;51827;51.186;6.926;2023-06-22T00:38:50;2.73;;;2.07;;
65238;SDS011;51827;51.186;6.926;2023-06-22T00:39:53;3.53;;;2.40;;
65238;SDS011;51827;51.186;6.926;2023-06-22T00:40:53;3.33;;;2.35;;
65238;SDS011;51827;51.186;6.926;2023-06-22T00:41:54;2.80;;;2.00;;
65238;SDS011;51827;51.186;6.926;2023-06-22T00:42:54;3.03;;;2.17;;
65238;SDS011;51827;51.186;6.926;2023-06-22T00:43:55;2.63;;;1.90;;
65238;SDS011;51827;51.186;6.926;2023-06-22T00:44:55;3.17;;;2.10;;
65238;SDS011;51827;51.186;6.926;2023-06-22T00:45:55;2.70;;;2.17;;
65238;SDS011;51827;51.186;6.926;2023-06-22T00:46:56;3.05;;;2.10;;
65238;SDS011;51827;51.186;6.926;2023-06-22T00:47:57;2.93;;;2.07;;
65238;SDS011;51827;51.186;6.926;2023-06-22T00:48:58;4.25;;;2.10;;
65238;SDS011;51827;51.186;6.926;2023-06-22T00:49:58;3.03;;;2.10;;
65238;SDS011;51827;51.186;6.926;2023-06-22T00:50:58;3.77;;;2.27;;
65238;SDS011;51827;51.186;6.926;2023-06-22T00:51:59;3.15;;;2.17;;
65238;SDS011;51827;51.186;6.926;2023-06-22T00:53:00;2.90;;;2.27;;
65238;SDS011;51827;51.186;6.926;2023-06-22T00:54:04;3.22;;;2.08;;
65238;SDS011;51827;51.186;6.926;2023-06-22T00:56:05;3.43;;;2.40;;
65238;SDS011;51827;51.186;6.926;2023-06-22T00:57:05;3.45;;;2.05;;
65238;SDS011;51827;51.186;6.926;2023-06-22T00:58:06;2.80;;;2.10;;
65238;SDS011;51827;51.186;6.926;2023-06-22T00:59:06;2.75;;;2.00;;
65238;SDS011;51827;51.186;6.926;2023-06-22T01:00:07;3.30;;;2.20;;
65238;SDS011;51827;51.186;6.926;2023-06-22T01:01:08;3.22;;;2.20;;
65238;SDS011;51827;51.186;6.926;2023-06-22T01:02:08;3.58;;;2.35;;
65238;SDS011;51827;51.186;6.926;2023-06-22T01:03:08;2.80;;;1.90;;
65238;SDS011;51827;51.186;6.926;2023-06-22T01:04:09;2.70;;;1.88;;
65238;SDS011;51827;51.186;6.926;2023-06-22T01:05:09;2.90;;;2.13;;
65238;SDS011;51827;51.186;6.926;2023-06-22T01:06:10;2.50;;;2.00;;
65238;SDS011;51827;51.186;6.926;2023-06-22T01:09:49;2.75;;;2.10;;
65238;SDS011;51827;51.186;6.926;2023-06-22T01:12:08;3.03;;;2.13;;
65238;SDS011;51827;51.186;6.926;2023-06-22T01:14:32;2.90;;;2.13;;
65238;SDS011;51827;51.186;6.926;2023-06-22T01:16:00;3.05;;;2.00;;
65238;SDS011;51827;51.186;6.926;2023-06-22T01:17:04;2.83;;;1.88;;
65238;SDS011;51827;51.186;6.926;2023-06-22T01:18:07;2.75;;;1.90;;
65238;SDS011;51827;51.186;6.926;2023-06-22T01:19:16;2.78;;;2.05;;
65238;SDS011;51827;51.186;6.926;2023-06-22T01:20:43;3.15;;;2.22;;
65238;SDS011;51827;51.186;6.926;2023-06-22T01:21:44;3.13;;;1.95;;
65238;SDS011;51827;51.186;6.926;2023-06-22T01:22:57;3.00;;;2.10;;
65238;SDS011;51827;51.186;6.926;2023-06-22T01:24:15;2.80;;;1.90;;
65238;SDS011;51827;51.186;6.926;2023-06-22T01:25:26;2.92;;;2.15;;
65238;SDS011;51827;51.186;6.926;2023-06-22T01:29:24;2.92;;;2.00;;
65238;SDS011;51827;51.186;6.926;2023-06-22T01:30:27;3.72;;;2.38;;
65238;SDS011;51827;51.186;6.926;2023-06-22T01:31:29;2.58;;;1.92;;
65238;SDS011;51827;51.186;6.926;2023-06-22T01:32:33;2.55;;;2.00;;
65238;SDS011;51827;51.186;6.926;2023-06-22T01:33:37;3.38;;;1.90;;
65238;SDS011;51827;51.186;6.926;2023-06-22T01:34:40;3.28;;;1.95;;
65238;SDS011;51827;51.186;6.926;2023-06-22T01:35:42;3.25;;;2.17;;
65238;SDS011;51827;51.186;6.926;2023-06-22T01:36:43;4.22;;;2.28;;
65238;SDS011;51827;51.186;6.926;2023-06-22T01:37:44;2.83;;;1.70;;
65238;SDS011;51827;51.186;6.926;2023-06-22T01:38:44;3.17;;;2.23;;
65238;SDS011;51827;51.186;6.926;2023-06-22T01:39:46;2.88;;;1.88;;
65238;SDS011;51827;51.186;6.926;2023-06-22T01:40:47;2.90;;;2.10;;
65238;SDS011;51827;51.186;6.926;2023-06-22T01:41:49;2.83;;;2.10;;
65238;SDS011;51827;51.186;6.926;2023-06-22T01:42:50;2.22;;;1.70;;
65238;SDS011;51827;51.186;6.926;2023-06-22T01:43:51;2.30;;;1.65;;
65238;SDS011;51827;51.186;6.926;2023-06-22T01:44:53;2.72;;;2.10;;
65238;SDS011;51827;51.186;6.926;2023-06-22T01:45:54;3.25;;;2.25;;
65238;SDS011;51827;51.186;6.926;2023-06-22T01:46:55;2.67;;;2.10;;
65238;SDS011;51827;51.186;6.926;2023-06-22T01:47:56;2.92;;;2.08;;
65238;SDS011;51827;51.186;6.926;2023-06-22T01:48:57;3.58;;;2.10;;
65238;SDS011;51827;51.186;6.926;2023-06-22T01:49:57;2.63;;;1.80;;
65238;SDS011;51827;51.186;6.926;2023-06-22T01:50:58;3.40;;;2.15;;
65238;SDS011;51827;51.186;6.926;2023-06-22T01:51:58;2.75;;;2.00;;
65238;SDS011;51827;51.186;6.926;2023-06-22T01:52:59;2.60;;;1.80;;
65238;SDS011;51827;51.186;6.926;2023-06-22T01:53:59;3.33;;;2.20;;
65238;SDS011;51827;51.186;6.926;2023-06-22T01:55:01;2.67;;;1.98;;
65238;SDS011;51827;51.186;6.926;2023-06-22T01:56:01;2.67;;;1.90;;
65238;SDS011;51827;51.186;6.926;2023-06-22T01:57:01;2.93;;;2.07;;
65238;SDS011;51827;51.186;6.926;2023-06-22T01:58:02;2.80;;;1.92;;
65238;SDS011;51827;51.186;6.926;2023-06-22T01:59:17;2.83;;;2.00;;
65238;SDS011;51827;51.186;6.926;2023-06-22T02:00:31;2.97;;;2.13;;
65238;SDS011;51827;51.186;6.926;2023-06-22T02:01:40;2.85;;;1.98;;
65238;SDS011;51827;51.186;6.926;2023-06-22T02:02:47;2.55;;;1.83;;
65238;SDS011;51827;51.186;6.926;2023-06-22T02:03:57;2.58;;;1.83;;
65238;SDS011;51827;51.186;6.926;2023-06-22T02:05:08;2.35;;;1.90;;
65238;SDS011;51827;51.186;6.926;2023-06-22T02:06:10;2.60;;;1.80;;
65238;SDS011;51827;51.186;6.926;2023-06-22T02:07:23;2.85;;;1.90;;
65238;SDS011;51827;51.186;6.926;2023-06-22T02:08:28;2.22;;;1.80;;
65238;SDS011;51827;51.186;6.926;2023-06-22T02:09:31;2.60;;;2.00;;
65238;SDS011;51827;51.186;6.926;2023-06-22T02:10:34;2.83;;;2.00;;
65238;SDS011;51827;51.186;6.926;2023-06-22T02:11:36;2.63;;;1.85;;
65238;SDS011;51827;51.186;6.926;2023-06-22T02:12:38;2.85;;;1.83;;
65238;SDS011;51827;51.186;6.926;2023-06-22T02:14:39;2.80;;;2.00;;
65238;SDS011;51827;51.186;6.926;2023-06-22T02:15:40;2.90;;;1.80;;
65238;SDS011;51827;51.186;6.926;2023-06-22T02:16:40;4.00;;;2.10;;
65238;SDS011;51827;51.186;6.926;2023-06-22T02:17:42;3.03;;;2.03;;
65238;SDS011;51827;51.186;6.926;2023-06-22T02:18:46;2.78;;;1.90;;
65238;SDS011;51827;51.186;6.926;2023-06-22T02:19:47;2.75;;;2.05;;
65238;SDS011;51827;51.186;6.926;2023-06-22T02:20:47;2.80;;;2.17;;
65238;SDS011;51827;51.186;6.926;2023-06-22T02:21:47;2.87;;;2.00;;
65238;SDS011;51827;51.186;6.926;2023-06-22T02:22:48;3.23;;;2.03;;
65238;SDS011;51827;51.186;6.926;2023-06-22T02:23:48;2.93;;;2.13;;
65238;SDS011;51827;51.186;6.926;2023-06-22T02:24:48;2.37;;;1.83;;
65238;SDS011;51827;51.186;6.926;2023-06-22T02:25:48;2.90;;;2.10;;
65238;SDS011;51827;51.186;6.926;2023-06-22T02:26:49;2.85;;;1.95;;
65238;SDS011;51827;51.186;6.926;2023-06-22T02:27:49;2.75;;;1.92;;
65238;SDS011;51827;51.186;6.926;2023-06-22T02:28:49;3.23;;;1.90;;
65238;SDS011;51827;51.186;6.926;2023-06-22T02:29:50;3.03;;;2.07;;
65238;SDS011;51827;51.186;6.926;2023-06-22T02:30:50;3.03;;;1.80;;
65238;SDS011;51827;51.186;6.926;2023-06-22T02:31:50;3.07;;;2.10;;
65238;SDS011;51827;51.186;6.926;2023-06-22T02:32:50;2.63;;;1.75;;
65238;SDS011;51827;51.186;6.926;2023-06-22T02:33:51;2.87;;;2.13;;
65238;SDS011;51827;51.186;6.926;2023-06-22T02:34:52;2.67;;;1.90;;
65238;SDS011;51827;51.186;6.926;2023-06-22T02:36:53;3.03;;;2.00;;
65238;SDS011;51827;51.186;6.926;2023-06-22T02:37:53;2.75;;;2.00;;
65238;SDS011;51827;51.186;6.926;2023-06-22T02:38:54;2.50;;;1.80;;
65238;SDS011;51827;51.186;6.926;2023-06-22T02:39:54;2.65;;;1.85;;
65238;SDS011;51827;51.186;6.926;2023-06-22T02:40:55;2.33;;;1.90;;
65238;SDS011;51827;51.186;6.926;2023-06-22T02:41:55;2.40;;;1.80;;
65238;SDS011;51827;51.186;6.926;2023-06-22T02:42:55;2.80;;;1.90;;
65238;SDS011;51827;51.186;6.926;2023-06-22T02:43:56;3.13;;;2.15;;
65238;SDS011;51827;51.186;6.926;2023-06-22T02:44:56;2.67;;;2.00;;
65238;SDS011;51827;51.186;6.926;2023-06-22T02:45:57;2.70;;;1.90;;
65238;SDS011;51827;51.186;6.926;2023-06-22T02:46:57;3.60;;;2.22;;
65238;SDS011;51827;51.186;6.926;2023-06-22T02:47:58;2.67;;;1.90;;
65238;SDS011;51827;51.186;6.926;2023-06-22T02:48:58;2.80;;;2.00;;
65238;SDS011;51827;51.186;6.926;2023-06-22T02:49:58;2.57;;;1.93;;
65238;SDS011;51827;51.186;6.926;2023-06-22T02:50:58;3.00;;;1.90;;
65238;SDS011;51827;51.186;6.926;2023-06-22T02:51:59;2.53;;;2.00;;
65238;SDS011;51827;51.186;6.926;2023-06-22T02:52:59;2.90;;;2.07;;
65238;SDS011;51827;51.186;6.926;2023-06-22T02:53:59;2.67;;;1.97;;
65238;SDS011;51827;51.186;6.926;2023-06-22T02:55:00;2.40;;;1.70;;
65238;SDS011;51827;51.186;6.926;2023-06-22T02:56:03;2.97;;;2.00;;
65238;SDS011;51827;51.186;6.926;2023-06-22T02:57:07;3.00;;;2.05;;
65238;SDS011;51827;51.186;6.926;2023-06-22T02:58:07;2.45;;;1.80;;
65238;SDS011;51827;51.186;6.926;2023-06-22T02:59:08;2.93;;;1.90;;
65238;SDS011;51827;51.186;6.926;2023-06-22T03:00:08;2.73;;;1.97;;
65238;SDS011;51827;51.186;6.926;2023-06-22T03:02:09;2.40;;;1.90;;
65238;SDS011;51827;51.186;6.926;2023-06-22T03:03:09;3.23;;;2.20;;
65238;SDS011;51827;51.186;6.926;2023-06-22T03:04:13;3.10;;;2.00;;
65238;SDS011;51827;51.186;6.926;2023-06-22T03:05:13;4.53;;;2.08;;
65238;SDS011;51827;51.186;6.926;2023-06-22T03:06:14;3.30;;;2.00;;
65238;SDS011;51827;51.186;6.926;2023-06-22T03:07:15;2.97;;;2.10;;
65238;SDS011;51827;51.186;6.926;2023-06-22T03:08:15;3.42;;;2.00;;
65238;SDS011;51827;51.186;6.926;2023-06-22T03:09:16;2.73;;;2.13;;
65238;SDS011;51827;51.186;6.926;2023-06-22T03:10:16;2.92;;;2.00;;
65238;SDS011;51827;51.186;6.926;2023-06-22T03:11:17;2.38;;;1.70;;
65238;SDS011;51827;51.186;6.926;2023-06-22T03:12:17;2.50;;;1.93;;
65238;SDS011;51827;51.186;6.926;2023-06-22T03:13:17;2.30;;;1.80;;
65238;SDS011;51827;51.186;6.926;2023-06-22T03:14:17;2.47;;;1.93;;
65238;SDS011;51827;51.186;6.926;2023-06-22T03:15:18;2.43;;;1.70;;
65238;SDS011;51827;51.186;6.926;2023-06-22T03:16:18;2.37;;;1.73;;
65238;SDS011;51827;51.186;6.926;2023-06-22T03:17:19;2.85;;;2.20;;
65238;SDS011;51827;51.186;6.926;2023-06-22T03:18:19;2.40;;;1.80;;
65238;SDS011;51827;51.186;6.926;2023-06-22T03:19:19;2.70;;;1.93;;
65238;SDS011;51827;51.186;6.926;2023-06-22T03:20:19;3.13;;;1.90;;
65238;SDS011;51827;51.186;6.926;2023-06-22T03:21:21;2.67;;;1.80;;
65238;SDS011;51827;51.186;6.926;2023-06-22T03:22:22;3.17;;;1.90;;
65238;SDS011;51827;51.186;6.926;2023-06-22T03:23:22;2.80;;;2.00;;
65238;SDS011;51827;51.186;6.926;2023-06-22T03:24:22;2.73;;;2.00;;
65238;SDS011;51827;51.186;6.926;2023-06-22T03:25:23;2.80;;;2.00;;
65238;SDS011;51827;51.186;6.926;2023-06-22T03:26:23;2.80;;;2.03;;
65238;SDS011;51827;51.186;6.926;2023-06-22T03:27:23;2.77;;;1.83;;
65238;SDS011;51827;51.186;6.926;2023-06-22T03:28:23;2.73;;;1.97;;
65238;SDS011;51827;51.186;6.926;2023-06-22T03:29:24;4.23;;;1.93;;
65238;SDS011;51827;51.186;6.926;2023-06-22T03:30:24;3.00;;;2.00;;
65238;SDS011;51827;51.186;6.926;2023-06-22T03:31:24;2.30;;;1.63;;
65238;SDS011;51827;51.186;6.926;2023-06-22T03:32:24;3.07;;;1.80;;
65238;SDS011;51827;51.186;6.926;2023-06-22T03:33:25;3.43;;;2.30;;
65238;SDS011;51827;51.186;6.926;2023-06-22T03:34:25;2.50;;;1.80;;
65238;SDS011;51827;51.186;6.926;2023-06-22T03:35:25;2.70;;;2.00;;
65238;SDS011;51827;51.186;6.926;2023-06-22T03:36:26;2.77;;;1.73;;
65238;SDS011;51827;51.186;6.926;2023-06-22T03:37:26;2.43;;;1.80;;
65238;SDS011;51827;51.186;6.926;2023-06-22T03:38:27;2.78;;;1.98;;
65238;SDS011;51827;51.186;6.926;2023-06-22T03:39:27;2.50;;;1.80;;
65238;SDS011;51827;51.186;6.926;2023-06-22T03:40:28;2.80;;;2.00;;
65238;SDS011;51827;51.186;6.926;2023-06-22T03:41:28;3.10;;;2.00;;
65238;SDS011;51827;51.186;6.926;2023-06-22T03:42:28;2.83;;;1.90;;
65238;SDS011;51827;51.186;6.926;2023-06-22T03:43:28;2.90;;;1.80;;
65238;SDS011;51827;51.186;6.926;2023-06-22T03:44:29;3.13;;;2.00;;
65238;SDS011;51827;51.186;6.926;2023-06-22T03:45:29;2.63;;;1.90;;
65238;SDS011;51827;51.186;6.926;2023-06-22T03:46:29;2.83;;;1.90;;
65238;SDS011;51827;51.186;6.926;2023-06-22T03:47:29;2.50;;;1.90;;
65238;SDS011;51827;51.186;6.926;2023-06-22T03:48:30;2.37;;;1.93;;
65238;SDS011;51827;51.186;6.926;2023-06-22T03:49:30;2.67;;;2.03;;
65238;SDS011;51827;51.186;6.926;2023-06-22T03:50:30;2.60;;;2.10;;
65238;SDS011;51827;51.186;6.926;2023-06-22T03:51:30;2.60;;;1.80;;
65238;SDS011;51827;51.186;6.926;2023-06-22T03:52:31;2.75;;;2.20;;
65238;SDS011;51827;51.186;6.926;2023-06-22T03:53:31;2.70;;;2.00;;
65238;SDS011;51827;51.186;6.926;2023-06-22T03:54:32;2.37;;;1.80;;
65238;SDS011;51827;51.186;6.926;2023-06-22T03:55:33;2.60;;;1.90;;
65238;SDS011;51827;51.186;6.926;2023-06-22T03:56:34;2.42;;;1.90;;
65238;SDS011;51827;51.186;6.926;2023-06-22T03:57:34;2.90;;;2.00;;
65238;SDS011;51827;51.186;6.926;2023-06-22T03:58:34;2.60;;;1.70;;
65238;SDS011;51827;51.186;6.926;2023-06-22T03:59:34;2.80;;;2.10;;
65238;SDS011;51827;51.186;6.926;2023-06-22T04:00:35;3.00;;;2.27;;
65238;SDS011;51827;51.186;6.926;2023-06-22T04:01:35;3.07;;;2.07;;
65238;SDS011;51827;51.186;6.926;2023-06-22T04:02:35;3.03;;;2.10;;
65238;SDS011;51827;51.186;6.926;2023-06-22T04:03:35;3.23;;;1.97;;
65238;SDS011;51827;51.186;6.926;2023-06-22T04:04:35;3.00;;;1.90;;
65238;SDS011;51827;51.186;6.926;2023-06-22T04:05:36;3.33;;;2.03;;
65238;SDS011;51827;51.186;6.926;2023-06-22T04:06:36;2.37;;;1.93;;
65238;SDS011;51827;51.186;6.926;2023-06-22T04:07:36;2.97;;;1.93;;
65238;SDS011;51827;51.186;6.926;2023-06-22T04:08:36;3.30;;;2.10;;
65238;SDS011;51827;51.186;6.926;2023-06-22T04:09:39;2.75;;;1.90;;
65238;SDS011;51827;51.186;6.926;2023-06-22T04:10:39;2.63;;;1.90;;
65238;SDS011;51827;51.186;6.926;2023-06-22T04:11:40;2.20;;;1.80;;
65238;SDS011;51827;51.186;6.926;2023-06-22T04:12:40;2.40;;;2.00;;
65238;SDS011;51827;51.186;6.926;2023-06-22T04:13:40;2.40;;;1.90;;
65238;SDS011;51827;51.186;6.926;2023-06-22T04:14:40;3.43;;;2.00;;
65238;SDS011;51827;51.186;6.926;2023-06-22T04:15:41;3.43;;;2.10;;
65238;SDS011;51827;51.186;6.926;2023-06-22T04:16:41;2.67;;;1.97;;
65238;SDS011;51827;51.186;6.926;2023-06-22T04:17:41;3.43;;;1.80;;
65238;SDS011;51827;51.186;6.926;2023-06-22T04:18:41;2.73;;;1.90;;
65238;SDS011;51827;51.186;6.926;2023-06-22T04:19:42;2.70;;;1.90;;
65238;SDS011;51827;51.186;6.926;2023-06-22T04:20:42;3.13;;;2.20;;
65238;SDS011;51827;51.186;6.926;2023-06-22T04:21:42;2.70;;;1.90;;
65238;SDS011;51827;51.186;6.926;2023-06-22T04:23:43;3.00;;;2.13;;
65238;SDS011;51827;51.186;6.926;2023-06-22T04:24:44;2.67;;;1.90;;
65238;SDS011;51827;51.186;6.926;2023-06-22T04:25:44;2.88;;;1.83;;
65238;SDS011;51827;51.186;6.926;2023-06-22T04:26:44;2.77;;;1.97;;
65238;SDS011;51827;51.186;6.926;2023-06-22T04:27:45;2.53;;;2.00;;
65238;SDS011;51827;51.186;6.926;2023-06-22T04:28:48;2.88;;;2.13;;
65238;SDS011;51827;51.186;6.926;2023-06-22T04:29:48;2.77;;;2.30;;
65238;SDS011;51827;51.186;6.926;2023-06-22T04:30:49;3.10;;;2.13;;
65238;SDS011;51827;51.186;6.926;2023-06-22T04:31:49;2.53;;;1.90;;
65238;SDS011;51827;51.186;6.926;2023-06-22T04:32:49;2.40;;;1.83;;
65238;SDS011;51827;51.186;6.926;2023-06-22T04:33:49;3.00;;;2.07;;
65238;SDS011;51827;51.186;6.926;2023-06-22T04:34:50;3.33;;;2.13;;
65238;SDS011;51827;51.186;6.926;2023-06-22T04:35:50;3.03;;;2.30;;
65238;SDS011;51827;51.186;6.926;2023-06-22T04:36:50;3.70;;;2.30;;
65238;SDS011;51827;51.186;6.926;2023-06-22T04:37:50;4.00;;;2.57;;
65238;SDS011;51827;51.186;6.926;2023-06-22T04:38:51;4.55;;;2.00;;
65238;SDS011;51827;51.186;6.926;2023-06-22T04:39:51;3.47;;;2.03;;
65238;SDS011;51827;51.186;6.926;2023-06-22T04:40:51;2.50;;;1.97;;
65238;SDS011;51827;51.186;6.926;2023-06-22T04:41:51;3.23;;;2.10;;
65238;SDS011;51827;51.186;6.926;2023-06-22T04:42:52;4.50;;;2.33;;
65238;SDS011;51827;51.186;6.926;2023-06-22T04:43:53;3.45;;;2.28;;
65238;SDS011;51827;51.186;6.926;2023-06-22T04:44:53;2.70;;;2.20;;
65238;SDS011;51827;51.186;6.926;2023-06-22T04:45:53;2.78;;;2.20;;
65238;SDS011;51827;51.186;6.926;2023-06-22T04:46:55;3.33;;;2.33;;
65238;SDS011;51827;51.186;6.926;2023-06-22T04:47:57;3.50;;;2.20;;
65238;SDS011;51827;51.186;6.926;2023-06-22T04:48:57;5.05;;;3.08;;
65238;SDS011;51827;51.186;6.926;2023-06-22T04:49:57;12.00;;;4.20;;
65238;SDS011;51827;51.186;6.926;2023-06-22T04:51:01;11.80;;;4.33;;
65238;SDS011;51827;51.186;6.926;2023-06-22T04:52:02;12.52;;;4.30;;
65238;SDS011;51827;51.186;6.926;2023-06-22T04:53:04;6.90;;;3.22;;
65238;SDS011;51827;51.186;6.926;2023-06-22T04:54:04;14.85;;;4.45;;
65238;SDS011;51827;51.186;6.926;2023-06-22T04:55:05;14.75;;;3.78;;
65238;SDS011;51827;51.186;6.926;2023-06-22T04:56:06;10.95;;;3.65;;
65238;SDS011;51827;51.186;6.926;2023-06-22T04:57:07;17.67;;;5.50;;
65238;SDS011;51827;51.186;6.926;2023-06-22T04:59:07;17.63;;;4.70;;
65238;SDS011;51827;51.186;6.926;2023-06-22T05:00:08;3.27;;;2.40;;
65238;SDS011;51827;51.186;6.926;2023-06-22T05:01:09;13.43;;;4.13;;
65238;SDS011;51827;51.186;6.926;2023-06-22T05:02:09;20.60;;;5.30;;
65238;SDS011;51827;51.186;6.926;2023-06-22T05:03:09;17.63;;;4.53;;
65238;SDS011;51827;51.186;6.926;2023-06-22T05:04:10;13.43;;;4.00;;
65238;SDS011;51827;51.186;6.926;2023-06-22T05:05:10;14.65;;;3.90;;
65238;SDS011;51827;51.186;6.926;2023-06-22T05:06:11;16.55;;;4.13;;
65238;SDS011;51827;51.186;6.926;2023-06-22T05:07:11;11.90;;;3.77;;
65238;SDS011;51827;51.186;6.926;2023-06-22T05:08:12;6.70;;;3.10;;
65238;SDS011;51827;51.186;6.926;2023-06-22T05:09:13;8.15;;;3.38;;
65238;SDS011;51827;51.186;6.926;2023-06-22T05:10:13;20.40;;;4.40;;
65238;SDS011;51827;51.186;6.926;2023-06-22T05:11:14;11.55;;;3.80;;
65238;SDS011;51827;51.186;6.926;2023-06-22T05:12:14;13.57;;;4.07;;
65238;SDS011;51827;51.186;6.926;2023-06-22T05:13:14;11.27;;;4.30;;
65238;SDS011;51827;51.186;6.926;2023-06-22T05:14:15;15.23;;;4.17;;
65238;SDS011;51827;51.186;6.926;2023-06-22T05:15:15;10.17;;;3.77;;
65238;SDS011;51827;51.186;6.926;2023-06-22T05:16:15;13.47;;;4.13;;
65238;SDS011;51827;51.186;6.926;2023-06-22T05:17:15;12.18;;;4.18;;
65238;SDS011;51827;51.186;6.926;2023-06-22T05:18:16;10.57;;;4.20;;
65238;SDS011;51827;51.186;6.926;2023-06-22T05:19:16;13.37;;;3.93;;
65238;SDS011;51827;51.186;6.926;2023-06-22T05:20:16;11.27;;;4.00;;
65238;SDS011;51827;51.186;6.926;2023-06-22T05:21:16;15.00;;;4.07;;
65238;SDS011;51827;51.186;6.926;2023-06-22T05:22:17;12.37;;;3.80;;
65238;SDS011;51827;51.186;6.926;2023-06-22T05:23:17;11.30;;;3.75;;
65238;SDS011;51827;51.186;6.926;2023-06-22T05:24:17;13.70;;;4.07;;
65238;SDS011;51827;51.186;6.926;2023-06-22T05:25:18;13.07;;;3.77;;
65238;SDS011;51827;51.186;6.926;2023-06-22T05:26:19;12.45;;;4.10;;
65238;SDS011;51827;51.186;6.926;2023-06-22T05:27:20;14.68;;;4.00;;
65238;SDS011;51827;51.186;6.926;2023-06-22T05:28:20;9.10;;;3.73;;
65238;SDS011;51827;51.186;6.926;2023-06-22T05:29:20;12.50;;;3.90;;
65238;SDS011;51827;51.186;6.926;2023-06-22T05:30:20;12.90;;;4.00;;
65238;SDS011;51827;51.186;6.926;2023-06-22T05:31:21;10.43;;;3.57;;
65238;SDS011;51827;51.186;6.926;2023-06-22T05:32:21;8.18;;;3.28;;
65238;SDS011;51827;51.186;6.926;2023-06-22T05:33:21;9.07;;;3.20;;
65238;SDS011;51827;51.186;6.926;2023-06-22T05:34:22;9.80;;;3.20;;
65238;SDS011;51827;51.186;6.926;2023-06-22T05:35:22;10.00;;;3.70;;
65238;SDS011;51827;51.186;6.926;2023-06-22T05:36:22;12.03;;;3.47;;
65238;SDS011;51827;51.186;6.926;2023-06-22T05:37:22;9.57;;;3.58;;
65238;SDS011;51827;51.186;6.926;2023-06-22T05:38:23;12.80;;;3.60;;
65238;SDS011;51827;51.186;6.926;2023-06-22T05:39:23;10.47;;;3.10;;
65238;SDS011;51827;51.186;6.926;2023-06-22T05:40:23;11.83;;;3.50;;
65238;SDS011;51827;51.186;6.926;2023-06-22T05:41:23;11.07;;;3.73;;
65238;SDS011;51827;51.186;6.926;2023-06-22T05:42:24;16.07;;;3.57;;
65238;SDS011;51827;51.186;6.926;2023-06-22T05:43:24;8.73;;;3.93;;
65238;SDS011;51827;51.186;6.926;2023-06-22T05:44:24;11.40;;;3.63;;
65238;SDS011;51827;51.186;6.926;2023-06-22T05:45:24;11.13;;;3.90;;
65238;SDS011;51827;51.186;6.926;2023-06-22T05:46:27;11.77;;;3.90;;
65238;SDS011;51827;51.186;6.926;2023-06-22T05:47:27;10.07;;;3.70;;
65238;SDS011;51827;51.186;6.926;2023-06-22T05:48:27;9.60;;;3.67;;
65238;SDS011;51827;51.186;6.926;2023-06-22T05:49:28;14.03;;;3.83;;
65238;SDS011;51827;51.186;6.926;2023-06-22T05:50:28;8.80;;;3.77;;
65238;SDS011;51827;51.186;6.926;2023-06-22T05:51:28;13.53;;;3.93;;
65238;SDS011;51827;51.186;6.926;2023-06-22T05:52:28;15.10;;;4.30;;
65238;SDS011;51827;51.186;6.926;2023-06-22T05:53:29;12.73;;;3.90;;
65238;SDS011;51827;51.186;6.926;2023-06-22T05:54:29;14.57;;;4.10;;
65238;SDS011;51827;51.186;6.926;2023-06-22T05:55:29;8.88;;;3.33;;
65238;SDS011;51827;51.186;6.926;2023-06-22T05:56:30;10.93;;;3.60;;
65238;SDS011;51827;51.186;6.926;2023-06-22T05:57:30;12.50;;;4.37;;
65238;SDS011;51827;51.186;6.926;2023-06-22T05:58:30;11.03;;;3.63;;
65238;SDS011;51827;51.186;6.926;2023-06-22T05:59:30;11.30;;;3.90;;
65238;SDS011;51827;51.186;6.926;2023-06-22T06:00:31;8.53;;;3.17;;
65238;SDS011;51827;51.186;6.926;2023-06-22T06:01:31;8.00;;;3.60;;
65238;SDS011;51827;51.186;6.926;2023-06-22T06:02:31;11.93;;;3.87;;
65238;SDS011;51827;51.186;6.926;2023-06-22T06:03:32;11.37;;;3.70;;
65238;SDS011;51827;51.186;6.926;2023-06-22T06:04:32;8.83;;;3.67;;
65238;SDS011;51827;51.186;6.926;2023-06-22T06:05:33;12.73;;;3.87;;
65238;SDS011;51827;51.186;6.926;2023-06-22T06:06:34;12.48;;;3.80;;
65238;SDS011;51827;51.186;6.926;2023-06-22T06:07:34;13.05;;;4.07;;
65238;SDS011;51827;51.186;6.926;2023-06-22T06:08:34;15.17;;;3.70;;
65238;SDS011;51827;51.186;6.926;2023-06-22T06:09:35;10.97;;;4.33;;
65238;SDS011;51827;51.186;6.926;2023-06-22T06:10:35;12.40;;;3.73;;
65238;SDS011;51827;51.186;6.926;2023-06-22T06:11:35;11.97;;;4.00;;
65238;SDS011;51827;51.186;6.926;2023-06-22T06:12:35;11.23;;;3.90;;
65238;SDS011;51827;51.186;6.926;2023-06-22T06:13:36;9.60;;;3.72;;
65238;SDS011;51827;51.186;6.926;2023-06-22T06:14:36;11.33;;;3.60;;
65238;SDS011;51827;51.186;6.926;2023-06-22T06:15:37;7.87;;;3.50;;
65238;SDS011;51827;51.186;6.926;2023-06-22T06:16:37;12.95;;;3.88;;
65238;SDS011;51827;51.186;6.926;2023-06-22T06:17:50;11.27;;;3.83;;
65238;SDS011;51827;51.186;6.926;2023-06-22T06:18:52;10.95;;;4.13;;
65238;SDS011;51827;51.186;6.926;2023-06-22T06:19:52;8.83;;;3.50;;
65238;SDS011;51827;51.186;6.926;2023-06-22T06:20:52;11.17;;;3.30;;
65238;SDS011;51827;51.186;6.926;2023-06-22T06:21:52;10.13;;;4.00;;
65238;SDS011;51827;51.186;6.926;2023-06-22T06:22:53;9.47;;;3.57;;